sensor_id;sensor_type;location;lat;lon;timestamp;P1;durP1;ratioP1;P2;durP2;ratioP2
49942;SDS011;36011;53.362;58.948;2023-06-10T00:01:18;3.80;;;3.00;;
49942;SDS011;36011;53.362;58.948;2023-06-10T00:04:22;3.70;;;2.67;;
49942;SDS011;36011;53.362;58.948;2023-06-10T00:07:23;5.55;;;3.13;;
49942;SDS011;36011;53.362;58.948;2023-06-10T00:10:27;4.15;;;2.83;;
49942;SDS011;36011;53.362;58.948;2023-06-10T00:13:31;5.13;;;3.40;;
49942;SDS011;36011;53.362;58.948;2023-06-10T00:19:39;4.47;;;2.77;;
49942;SDS011;36011;53.362;58.948;2023-06-10T00:22:42;5.32;;;2.90;;
49942;SDS011;36011;53.362;58.948;2023-06-10T00:25:46;7.90;;;3.40;;
49942;SDS011;36011;53.362;58.948;2023-06-10T00:28:47;5.40;;;3.00;;
49942;SDS011;36011;53.362;58.948;2023-06-10T00:31:57;4.18;;;2.95;;
49942;SDS011;36011;53.362;58.948;2023-06-10T00:38:04;10.40;;;3.00;;
49942;SDS011;36011;53.362;58.948;2023-06-10T00:41:08;8.88;;;3.85;;
49942;SDS011;36011;53.362;58.948;2023-06-10T00:47:12;10.18;;;3.55;;
49942;SDS011;36011;53.362;58.948;2023-06-10T00:50:17;8.38;;;3.92;;
49942;SDS011;36011;53.362;58.948;2023-06-10T00:53:18;9.63;;;3.88;;
49942;SDS011;36011;53.362;58.948;2023-06-10T00:56:21;8.32;;;4.00;;
49942;SDS011;36011;53.362;58.948;2023-06-10T00:59:23;12.35;;;3.92;;
49942;SDS011;36011;53.362;58.948;2023-06-10T01:02:26;12.18;;;4.10;;
49942;SDS011;36011;53.362;58.948;2023-06-10T01:05:28;10.45;;;4.22;;
49942;SDS011;36011;53.362;58.948;2023-06-10T01:08:38;7.65;;;3.83;;
49942;SDS011;36011;53.362;58.948;2023-06-10T01:11:52;12.95;;;4.55;;
49942;SDS011;36011;53.362;58.948;2023-06-10T01:15:06;12.77;;;4.40;;
49942;SDS011;36011;53.362;58.948;2023-06-10T01:18:11;12.23;;;4.75;;
49942;SDS011;36011;53.362;58.948;2023-06-10T01:21:20;17.85;;;4.72;;
49942;SDS011;36011;53.362;58.948;2023-06-10T01:24:25;14.38;;;4.68;;
49942;SDS011;36011;53.362;58.948;2023-06-10T01:27:32;11.18;;;4.35;;
49942;SDS011;36011;53.362;58.948;2023-06-10T01:33:51;9.15;;;3.88;;
49942;SDS011;36011;53.362;58.948;2023-06-10T01:36:55;11.55;;;4.30;;
49942;SDS011;36011;53.362;58.948;2023-06-10T01:40:03;12.70;;;4.18;;
49942;SDS011;36011;53.362;58.948;2023-06-10T01:43:08;10.93;;;3.97;;
49942;SDS011;36011;53.362;58.948;2023-06-10T01:46:12;10.45;;;4.13;;
49942;SDS011;36011;53.362;58.948;2023-06-10T01:49:22;8.57;;;3.67;;
49942;SDS011;36011;53.362;58.948;2023-06-10T01:52:24;11.63;;;3.65;;
49942;SDS011;36011;53.362;58.948;2023-06-10T01:55:28;8.85;;;3.17;;
49942;SDS011;36011;53.362;58.948;2023-06-10T01:58:34;7.78;;;3.30;;
49942;SDS011;36011;53.362;58.948;2023-06-10T02:04:37;7.65;;;3.28;;
49942;SDS011;36011;53.362;58.948;2023-06-10T02:07:41;5.80;;;2.97;;
49942;SDS011;36011;53.362;58.948;2023-06-10T02:10:44;9.27;;;4.15;;
49942;SDS011;36011;53.362;58.948;2023-06-10T02:13:48;5.78;;;3.40;;
49942;SDS011;36011;53.362;58.948;2023-06-10T02:16:49;5.97;;;2.83;;
49942;SDS011;36011;53.362;58.948;2023-06-10T02:19:52;5.97;;;3.53;;
49942;SDS011;36011;53.362;58.948;2023-06-10T02:22:59;11.90;;;4.22;;
49942;SDS011;36011;53.362;58.948;2023-06-10T02:26:01;8.48;;;3.90;;
49942;SDS011;36011;53.362;58.948;2023-06-10T02:29:07;7.47;;;3.95;;
49942;SDS011;36011;53.362;58.948;2023-06-10T02:32:09;10.48;;;4.30;;
49942;SDS011;36011;53.362;58.948;2023-06-10T02:35:14;10.95;;;3.95;;
49942;SDS011;36011;53.362;58.948;2023-06-10T02:38:18;7.32;;;3.83;;
49942;SDS011;36011;53.362;58.948;2023-06-10T02:41:21;9.73;;;3.65;;
49942;SDS011;36011;53.362;58.948;2023-06-10T02:44:25;8.43;;;3.28;;
49942;SDS011;36011;53.362;58.948;2023-06-10T02:47:32;6.47;;;3.15;;
49942;SDS011;36011;53.362;58.948;2023-06-10T02:50:33;4.72;;;2.72;;
49942;SDS011;36011;53.362;58.948;2023-06-10T02:53:37;5.38;;;2.65;;
49942;SDS011;36011;53.362;58.948;2023-06-10T02:56:38;5.43;;;2.92;;
49942;SDS011;36011;53.362;58.948;2023-06-10T02:59:42;7.20;;;3.10;;
49942;SDS011;36011;53.362;58.948;2023-06-10T03:02:43;6.03;;;2.55;;
49942;SDS011;36011;53.362;58.948;2023-06-10T03:05:46;8.90;;;2.80;;
49942;SDS011;36011;53.362;58.948;2023-06-10T03:08:48;8.57;;;4.63;;
49942;SDS011;36011;53.362;58.948;2023-06-10T03:11:52;9.30;;;4.15;;
49942;SDS011;36011;53.362;58.948;2023-06-10T03:14:53;5.95;;;2.70;;
49942;SDS011;36011;53.362;58.948;2023-06-10T03:20:58;2.70;;;2.25;;
49942;SDS011;36011;53.362;58.948;2023-06-10T03:24:03;2.75;;;2.00;;
49942;SDS011;36011;53.362;58.948;2023-06-10T03:27:08;3.00;;;2.05;;
49942;SDS011;36011;53.362;58.948;2023-06-10T03:30:10;2.55;;;2.00;;
49942;SDS011;36011;53.362;58.948;2023-06-10T03:33:13;4.32;;;1.98;;
49942;SDS011;36011;53.362;58.948;2023-06-10T03:36:14;4.95;;;2.30;;
49942;SDS011;36011;53.362;58.948;2023-06-10T03:39:16;3.85;;;2.22;;
49942;SDS011;36011;53.362;58.948;2023-06-10T03:42:17;3.85;;;1.80;;
49942;SDS011;36011;53.362;58.948;2023-06-10T03:45:18;3.30;;;1.77;;
49942;SDS011;36011;53.362;58.948;2023-06-10T03:48:22;2.42;;;1.92;;
49942;SDS011;36011;53.362;58.948;2023-06-10T03:51:25;3.70;;;1.77;;
49942;SDS011;36011;53.362;58.948;2023-06-10T03:54:29;2.88;;;1.40;;
49942;SDS011;36011;53.362;58.948;2023-06-10T03:57:34;7.07;;;1.77;;
49942;SDS011;36011;53.362;58.948;2023-06-10T04:00:35;2.90;;;1.75;;
49942;SDS011;36011;53.362;58.948;2023-06-10T04:03:46;5.18;;;1.90;;
49942;SDS011;36011;53.362;58.948;2023-06-10T04:06:51;2.47;;;1.50;;
49942;SDS011;36011;53.362;58.948;2023-06-10T04:09:53;2.83;;;1.75;;
49942;SDS011;36011;53.362;58.948;2023-06-10T04:12:54;2.17;;;1.77;;
49942;SDS011;36011;53.362;58.948;2023-06-10T04:16:02;2.95;;;1.42;;
49942;SDS011;36011;53.362;58.948;2023-06-10T04:19:06;2.30;;;1.48;;
49942;SDS011;36011;53.362;58.948;2023-06-10T04:22:09;1.40;;;1.08;;
49942;SDS011;36011;53.362;58.948;2023-06-10T04:25:13;1.92;;;1.27;;
49942;SDS011;36011;53.362;58.948;2023-06-10T04:28:15;1.52;;;1.08;;
49942;SDS011;36011;53.362;58.948;2023-06-10T04:31:16;1.42;;;1.33;;
49942;SDS011;36011;53.362;58.948;2023-06-10T04:34:17;1.30;;;1.15;;
49942;SDS011;36011;53.362;58.948;2023-06-10T04:37:22;3.00;;;1.40;;
49942;SDS011;36011;53.362;58.948;2023-06-10T04:40:23;1.23;;;0.95;;
49942;SDS011;36011;53.362;58.948;2023-06-10T04:43:24;2.20;;;1.23;;
49942;SDS011;36011;53.362;58.948;2023-06-10T04:46:31;3.13;;;1.20;;
49942;SDS011;36011;53.362;58.948;2023-06-10T04:49:33;1.45;;;0.95;;
49942;SDS011;36011;53.362;58.948;2023-06-10T04:52:34;1.95;;;1.30;;
49942;SDS011;36011;53.362;58.948;2023-06-10T04:55:35;1.42;;;0.95;;
49942;SDS011;36011;53.362;58.948;2023-06-10T04:58:43;4.70;;;1.17;;
49942;SDS011;36011;53.362;58.948;2023-06-10T05:01:47;1.42;;;0.75;;
49942;SDS011;36011;53.362;58.948;2023-06-10T05:04:49;2.22;;;1.17;;
49942;SDS011;36011;53.362;58.948;2023-06-10T05:07:56;2.22;;;1.15;;
49942;SDS011;36011;53.362;58.948;2023-06-10T05:11:02;1.10;;;0.70;;
49942;SDS011;36011;53.362;58.948;2023-06-10T05:14:06;1.33;;;0.90;;
49942;SDS011;36011;53.362;58.948;2023-06-10T05:17:11;1.98;;;0.77;;
49942;SDS011;36011;53.362;58.948;2023-06-10T05:20:16;2.08;;;0.80;;
49942;SDS011;36011;53.362;58.948;2023-06-10T05:23:23;1.20;;;1.10;;
49942;SDS011;36011;53.362;58.948;2023-06-10T05:29:26;1.77;;;1.17;;
49942;SDS011;36011;53.362;58.948;2023-06-10T05:32:29;1.92;;;1.17;;
49942;SDS011;36011;53.362;58.948;2023-06-10T05:35:36;2.33;;;1.17;;
49942;SDS011;36011;53.362;58.948;2023-06-10T05:38:40;4.45;;;0.90;;
49942;SDS011;36011;53.362;58.948;2023-06-10T05:41:45;2.63;;;0.88;;
49942;SDS011;36011;53.362;58.948;2023-06-10T05:44:47;1.40;;;1.08;;
49942;SDS011;36011;53.362;58.948;2023-06-10T05:47:51;5.32;;;1.60;;
49942;SDS011;36011;53.362;58.948;2023-06-10T05:50:53;1.17;;;0.90;;
49942;SDS011;36011;53.362;58.948;2023-06-10T05:53:59;1.30;;;1.00;;
49942;SDS011;36011;53.362;58.948;2023-06-10T05:57:03;2.78;;;1.38;;
49942;SDS011;36011;53.362;58.948;2023-06-10T06:00:07;1.25;;;0.98;;
49942;SDS011;36011;53.362;58.948;2023-06-10T06:03:09;1.65;;;1.00;;
49942;SDS011;36011;53.362;58.948;2023-06-10T06:06:13;2.33;;;1.10;;
49942;SDS011;36011;53.362;58.948;2023-06-10T06:09:17;2.47;;;1.20;;
49942;SDS011;36011;53.362;58.948;2023-06-10T06:12:24;2.13;;;1.20;;
49942;SDS011;36011;53.362;58.948;2023-06-10T06:15:27;1.38;;;0.88;;
49942;SDS011;36011;53.362;58.948;2023-06-10T06:18:34;1.55;;;1.45;;
49942;SDS011;36011;53.362;58.948;2023-06-10T06:21:40;4.80;;;1.27;;
49942;SDS011;36011;53.362;58.948;2023-06-10T06:24:41;3.58;;;1.92;;
49942;SDS011;36011;53.362;58.948;2023-06-10T06:27:48;1.55;;;1.17;;
49942;SDS011;36011;53.362;58.948;2023-06-10T06:30:51;3.20;;;1.40;;
49942;SDS011;36011;53.362;58.948;2023-06-10T06:33:58;3.67;;;1.20;;
49942;SDS011;36011;53.362;58.948;2023-06-10T06:37:02;2.42;;;1.10;;
49942;SDS011;36011;53.362;58.948;2023-06-10T06:40:04;1.08;;;0.90;;
49942;SDS011;36011;53.362;58.948;2023-06-10T06:43:06;2.45;;;1.20;;
49942;SDS011;36011;53.362;58.948;2023-06-10T06:46:13;1.90;;;1.10;;
49942;SDS011;36011;53.362;58.948;2023-06-10T06:49:14;3.55;;;0.98;;
49942;SDS011;36011;53.362;58.948;2023-06-10T06:52:20;1.23;;;1.05;;
49942;SDS011;36011;53.362;58.948;2023-06-10T06:55:23;1.75;;;1.10;;
49942;SDS011;36011;53.362;58.948;2023-06-10T06:58:26;1.50;;;0.98;;
49942;SDS011;36011;53.362;58.948;2023-06-10T07:01:30;1.13;;;0.98;;
49942;SDS011;36011;53.362;58.948;2023-06-10T07:04:31;1.38;;;1.27;;
49942;SDS011;36011;53.362;58.948;2023-06-10T07:07:40;1.83;;;1.55;;
49942;SDS011;36011;53.362;58.948;2023-06-10T07:10:44;1.33;;;0.85;;
49942;SDS011;36011;53.362;58.948;2023-06-10T07:13:48;1.77;;;1.40;;
49942;SDS011;36011;53.362;58.948;2023-06-10T07:16:56;3.08;;;1.20;;
49942;SDS011;36011;53.362;58.948;2023-06-10T07:20:03;1.42;;;1.00;;
49942;SDS011;36011;53.362;58.948;2023-06-10T07:23:05;1.77;;;1.30;;
49942;SDS011;36011;53.362;58.948;2023-06-10T07:26:07;2.35;;;1.60;;
49942;SDS011;36011;53.362;58.948;2023-06-10T07:29:14;1.38;;;1.10;;
49942;SDS011;36011;53.362;58.948;2023-06-10T07:32:20;3.42;;;1.40;;
49942;SDS011;36011;53.362;58.948;2023-06-10T07:35:23;3.50;;;1.83;;
49942;SDS011;36011;53.362;58.948;2023-06-10T07:38:27;2.67;;;1.55;;
49942;SDS011;36011;53.362;58.948;2023-06-10T07:41:30;2.88;;;1.40;;
49942;SDS011;36011;53.362;58.948;2023-06-10T07:44:37;1.35;;;1.25;;
49942;SDS011;36011;53.362;58.948;2023-06-10T07:47:43;1.90;;;1.58;;
49942;SDS011;36011;53.362;58.948;2023-06-10T07:50:48;3.25;;;1.83;;
49942;SDS011;36011;53.362;58.948;2023-06-10T07:53:53;1.65;;;1.42;;
49942;SDS011;36011;53.362;58.948;2023-06-10T07:56:59;2.10;;;1.60;;
49942;SDS011;36011;53.362;58.948;2023-06-10T08:00:00;1.30;;;1.20;;
49942;SDS011;36011;53.362;58.948;2023-06-10T08:03:07;1.65;;;1.17;;
49942;SDS011;36011;53.362;58.948;2023-06-10T08:06:08;1.67;;;1.10;;
49942;SDS011;36011;53.362;58.948;2023-06-10T08:09:14;2.28;;;1.15;;
49942;SDS011;36011;53.362;58.948;2023-06-10T08:12:16;2.30;;;1.67;;
49942;SDS011;36011;53.362;58.948;2023-06-10T08:15:23;1.42;;;1.10;;
49942;SDS011;36011;53.362;58.948;2023-06-10T08:18:29;3.22;;;1.63;;
49942;SDS011;36011;53.362;58.948;2023-06-10T08:21:33;3.30;;;1.77;;
49942;SDS011;36011;53.362;58.948;2023-06-10T08:24:34;1.75;;;1.35;;
49942;SDS011;36011;53.362;58.948;2023-06-10T08:27:36;2.22;;;1.50;;
49942;SDS011;36011;53.362;58.948;2023-06-10T08:30:39;2.53;;;1.90;;
49942;SDS011;36011;53.362;58.948;2023-06-10T08:33:45;3.47;;;2.15;;
49942;SDS011;36011;53.362;58.948;2023-06-10T08:36:49;2.22;;;1.70;;
49942;SDS011;36011;53.362;58.948;2023-06-10T08:39:58;3.30;;;1.63;;
49942;SDS011;36011;53.362;58.948;2023-06-10T08:43:08;4.03;;;1.88;;
49942;SDS011;36011;53.362;58.948;2023-06-10T08:46:16;2.03;;;1.60;;
49942;SDS011;36011;53.362;58.948;2023-06-10T08:49:21;2.97;;;1.90;;
49942;SDS011;36011;53.362;58.948;2023-06-10T08:52:26;2.92;;;1.80;;
49942;SDS011;36011;53.362;58.948;2023-06-10T08:55:38;4.25;;;2.40;;
49942;SDS011;36011;53.362;58.948;2023-06-10T08:58:45;2.63;;;1.77;;
49942;SDS011;36011;53.362;58.948;2023-06-10T09:01:54;3.70;;;2.00;;
49942;SDS011;36011;53.362;58.948;2023-06-10T09:04:58;4.47;;;2.50;;
49942;SDS011;36011;53.362;58.948;2023-06-10T09:08:07;4.88;;;1.63;;
49942;SDS011;36011;53.362;58.948;2023-06-10T09:11:12;3.08;;;1.70;;
49942;SDS011;36011;53.362;58.948;2023-06-10T09:14:19;1.98;;;1.77;;
49942;SDS011;36011;53.362;58.948;2023-06-10T09:17:20;2.28;;;2.08;;
49942;SDS011;36011;53.362;58.948;2023-06-10T09:20:25;2.50;;;2.03;;
49942;SDS011;36011;53.362;58.948;2023-06-10T09:23:27;3.45;;;2.25;;
49942;SDS011;36011;53.362;58.948;2023-06-10T09:26:36;4.25;;;2.05;;
49942;SDS011;36011;53.362;58.948;2023-06-10T09:32:55;3.35;;;2.38;;
49942;SDS011;36011;53.362;58.948;2023-06-10T09:35:57;3.58;;;2.88;;
49942;SDS011;36011;53.362;58.948;2023-06-10T09:39:18;5.13;;;2.63;;
49942;SDS011;36011;53.362;58.948;2023-06-10T09:42:25;2.33;;;1.75;;
49942;SDS011;36011;53.362;58.948;2023-06-10T09:45:30;2.78;;;1.88;;
49942;SDS011;36011;53.362;58.948;2023-06-10T09:48:40;3.58;;;1.88;;
49942;SDS011;36011;53.362;58.948;2023-06-10T09:51:52;4.78;;;2.92;;
49942;SDS011;36011;53.362;58.948;2023-06-10T09:55:01;2.37;;;1.87;;
49942;SDS011;36011;53.362;58.948;2023-06-10T09:58:04;3.83;;;2.00;;
49942;SDS011;36011;53.362;58.948;2023-06-10T10:01:09;1.90;;;1.75;;
49942;SDS011;36011;53.362;58.948;2023-06-10T10:04:14;2.75;;;1.70;;
49942;SDS011;36011;53.362;58.948;2023-06-10T10:07:26;4.40;;;2.40;;
49942;SDS011;36011;53.362;58.948;2023-06-10T10:10:27;3.37;;;2.20;;
49942;SDS011;36011;53.362;58.948;2023-06-10T10:13:29;2.33;;;1.90;;
49942;SDS011;36011;53.362;58.948;2023-06-10T10:16:36;3.10;;;1.98;;
49942;SDS011;36011;53.362;58.948;2023-06-10T10:19:48;4.80;;;2.35;;
49942;SDS011;36011;53.362;58.948;2023-06-10T10:22:55;3.97;;;2.13;;
49942;SDS011;36011;53.362;58.948;2023-06-10T10:26:01;4.20;;;2.28;;
49942;SDS011;36011;53.362;58.948;2023-06-10T10:29:10;5.90;;;2.00;;
49942;SDS011;36011;53.362;58.948;2023-06-10T10:32:35;5.90;;;2.65;;
49942;SDS011;36011;53.362;58.948;2023-06-10T10:35:41;4.18;;;2.75;;
49942;SDS011;36011;53.362;58.948;2023-06-10T10:38:48;4.03;;;2.45;;
49942;SDS011;36011;53.362;58.948;2023-06-10T10:41:50;3.63;;;2.38;;
49942;SDS011;36011;53.362;58.948;2023-06-10T10:44:52;3.13;;;2.37;;
49942;SDS011;36011;53.362;58.948;2023-06-10T10:47:54;3.55;;;2.20;;
49942;SDS011;36011;53.362;58.948;2023-06-10T10:50:59;4.72;;;1.80;;
49942;SDS011;36011;53.362;58.948;2023-06-10T10:54:12;2.40;;;2.03;;
49942;SDS011;36011;53.362;58.948;2023-06-10T10:57:18;6.82;;;3.00;;
49942;SDS011;36011;53.362;58.948;2023-06-10T11:00:34;3.47;;;2.17;;
49942;SDS011;36011;53.362;58.948;2023-06-10T11:03:44;2.90;;;1.90;;
49942;SDS011;36011;53.362;58.948;2023-06-10T11:06:53;2.20;;;1.90;;
49942;SDS011;36011;53.362;58.948;2023-06-10T11:09:58;3.22;;;2.03;;
49942;SDS011;36011;53.362;58.948;2023-06-10T11:13:15;3.30;;;2.10;;
49942;SDS011;36011;53.362;58.948;2023-06-10T11:16:20;2.72;;;1.65;;
49942;SDS011;36011;53.362;58.948;2023-06-10T11:22:58;2.88;;;1.88;;
49942;SDS011;36011;53.362;58.948;2023-06-10T11:26:15;5.15;;;2.40;;
49942;SDS011;36011;53.362;58.948;2023-06-10T11:29:37;3.50;;;1.67;;
49942;SDS011;36011;53.362;58.948;2023-06-10T11:32:55;2.03;;;1.80;;
49942;SDS011;36011;53.362;58.948;2023-06-10T11:36:00;2.88;;;2.35;;
49942;SDS011;36011;53.362;58.948;2023-06-10T11:39:09;2.97;;;1.77;;
49942;SDS011;36011;53.362;58.948;2023-06-10T11:42:15;3.70;;;2.10;;
49942;SDS011;36011;53.362;58.948;2023-06-10T11:45:18;3.35;;;2.10;;
49942;SDS011;36011;53.362;58.948;2023-06-10T11:48:21;3.53;;;1.90;;
49942;SDS011;36011;53.362;58.948;2023-06-10T11:51:28;3.17;;;1.73;;
49942;SDS011;36011;53.362;58.948;2023-06-10T11:54:33;5.00;;;2.00;;
49942;SDS011;36011;53.362;58.948;2023-06-10T11:57:34;2.85;;;1.63;;
49942;SDS011;36011;53.362;58.948;2023-06-10T12:00:45;3.10;;;1.80;;
49942;SDS011;36011;53.362;58.948;2023-06-10T12:03:47;3.05;;;1.55;;
49942;SDS011;36011;53.362;58.948;2023-06-10T12:06:57;3.00;;;1.80;;
49942;SDS011;36011;53.362;58.948;2023-06-10T12:10:03;5.35;;;1.90;;
49942;SDS011;36011;53.362;58.948;2023-06-10T12:13:09;2.42;;;1.90;;
49942;SDS011;36011;53.362;58.948;2023-06-10T12:16:12;1.92;;;1.73;;
49942;SDS011;36011;53.362;58.948;2023-06-10T12:19:20;4.10;;;1.73;;
49942;SDS011;36011;53.362;58.948;2023-06-10T12:22:21;2.00;;;1.80;;
49942;SDS011;36011;53.362;58.948;2023-06-10T12:25:27;2.20;;;2.00;;
49942;SDS011;36011;53.362;58.948;2023-06-10T12:28:31;3.60;;;2.00;;
49942;SDS011;36011;53.362;58.948;2023-06-10T12:31:51;2.33;;;2.13;;
49942;SDS011;36011;53.362;58.948;2023-06-10T12:35:03;2.30;;;1.85;;
49942;SDS011;36011;53.362;58.948;2023-06-10T12:38:05;2.60;;;1.83;;
49942;SDS011;36011;53.362;58.948;2023-06-10T12:41:16;2.40;;;1.77;;
49942;SDS011;36011;53.362;58.948;2023-06-10T12:44:32;3.15;;;2.08;;
49942;SDS011;36011;53.362;58.948;2023-06-10T12:47:41;4.68;;;2.63;;
49942;SDS011;36011;53.362;58.948;2023-06-10T12:50:52;3.40;;;2.35;;
49942;SDS011;36011;53.362;58.948;2023-06-10T12:53:56;4.50;;;2.10;;
49942;SDS011;36011;53.362;58.948;2023-06-10T12:56:57;4.20;;;1.85;;
49942;SDS011;36011;53.362;58.948;2023-06-10T12:59:58;6.60;;;2.33;;
49942;SDS011;36011;53.362;58.948;2023-06-10T13:03:09;3.75;;;2.03;;
49942;SDS011;36011;53.362;58.948;2023-06-10T13:06:10;2.35;;;1.77;;
49942;SDS011;36011;53.362;58.948;2023-06-10T13:09:15;3.05;;;2.10;;
49942;SDS011;36011;53.362;58.948;2023-06-10T13:12:17;3.17;;;1.88;;
49942;SDS011;36011;53.362;58.948;2023-06-10T13:15:18;2.45;;;1.80;;
49942;SDS011;36011;53.362;58.948;2023-06-10T13:18:22;4.18;;;2.17;;
49942;SDS011;36011;53.362;58.948;2023-06-10T13:21:23;4.63;;;2.60;;
49942;SDS011;36011;53.362;58.948;2023-06-10T13:24:27;2.72;;;2.22;;
49942;SDS011;36011;53.362;58.948;2023-06-10T13:27:31;4.18;;;2.60;;
49942;SDS011;36011;53.362;58.948;2023-06-10T13:30:35;3.63;;;2.63;;
49942;SDS011;36011;53.362;58.948;2023-06-10T13:33:41;3.35;;;2.25;;
49942;SDS011;36011;53.362;58.948;2023-06-10T13:36:46;3.15;;;1.98;;
49942;SDS011;36011;53.362;58.948;2023-06-10T13:39:50;3.13;;;2.20;;
49942;SDS011;36011;53.362;58.948;2023-06-10T13:42:52;2.72;;;1.92;;
49942;SDS011;36011;53.362;58.948;2023-06-10T13:45:57;3.63;;;1.83;;
49942;SDS011;36011;53.362;58.948;2023-06-10T13:48:58;3.35;;;1.83;;
49942;SDS011;36011;53.362;58.948;2023-06-10T13:52:03;6.80;;;2.03;;
49942;SDS011;36011;53.362;58.948;2023-06-10T13:55:04;7.13;;;3.42;;
49942;SDS011;36011;53.362;58.948;2023-06-10T13:58:08;4.13;;;2.67;;
49942;SDS011;36011;53.362;58.948;2023-06-10T14:01:12;3.38;;;2.45;;
49942;SDS011;36011;53.362;58.948;2023-06-10T14:04:16;3.88;;;2.30;;
49942;SDS011;36011;53.362;58.948;2023-06-10T14:07:22;3.97;;;2.55;;
49942;SDS011;36011;53.362;58.948;2023-06-10T14:10:26;4.75;;;2.78;;
49942;SDS011;36011;53.362;58.948;2023-06-10T14:13:30;2.92;;;2.17;;
49942;SDS011;36011;53.362;58.948;2023-06-10T14:16:34;5.95;;;2.42;;
49942;SDS011;36011;53.362;58.948;2023-06-10T14:19:35;3.72;;;2.38;;
49942;SDS011;36011;53.362;58.948;2023-06-10T14:22:43;3.22;;;2.80;;
49942;SDS011;36011;53.362;58.948;2023-06-10T14:25:47;6.28;;;3.13;;
49942;SDS011;36011;53.362;58.948;2023-06-10T14:28:53;5.63;;;2.97;;
49942;SDS011;36011;53.362;58.948;2023-06-10T14:31:55;4.10;;;2.67;;
49942;SDS011;36011;53.362;58.948;2023-06-10T14:34:58;3.67;;;2.40;;
49942;SDS011;36011;53.362;58.948;2023-06-10T14:38:06;3.03;;;2.40;;
49942;SDS011;36011;53.362;58.948;2023-06-10T14:41:11;3.45;;;2.38;;
49942;SDS011;36011;53.362;58.948;2023-06-10T14:44:17;5.63;;;3.70;;
49942;SDS011;36011;53.362;58.948;2023-06-10T14:47:18;4.63;;;3.67;;
49942;SDS011;36011;53.362;58.948;2023-06-10T14:50:22;4.43;;;3.15;;
49942;SDS011;36011;53.362;58.948;2023-06-10T14:53:28;4.47;;;2.53;;
49942;SDS011;36011;53.362;58.948;2023-06-10T14:56:29;5.15;;;2.75;;
49942;SDS011;36011;53.362;58.948;2023-06-10T14:59:33;5.53;;;2.47;;
49942;SDS011;36011;53.362;58.948;2023-06-10T15:02:35;3.35;;;2.47;;
49942;SDS011;36011;53.362;58.948;2023-06-10T15:05:42;3.97;;;2.95;;
49942;SDS011;36011;53.362;58.948;2023-06-10T15:08:43;4.07;;;2.83;;
49942;SDS011;36011;53.362;58.948;2023-06-10T15:11:44;4.05;;;3.10;;
49942;SDS011;36011;53.362;58.948;2023-06-10T15:14:45;3.28;;;2.95;;
49942;SDS011;36011;53.362;58.948;2023-06-10T15:17:47;5.88;;;2.95;;
49942;SDS011;36011;53.362;58.948;2023-06-10T15:20:50;3.63;;;2.80;;
49942;SDS011;36011;53.362;58.948;2023-06-10T15:23:52;5.32;;;2.70;;
49942;SDS011;36011;53.362;58.948;2023-06-10T15:26:56;4.32;;;3.15;;
49942;SDS011;36011;53.362;58.948;2023-06-10T15:30:02;4.03;;;2.53;;
49942;SDS011;36011;53.362;58.948;2023-06-10T15:33:08;3.40;;;2.67;;
49942;SDS011;36011;53.362;58.948;2023-06-10T15:36:12;6.18;;;3.83;;
49942;SDS011;36011;53.362;58.948;2023-06-10T15:39:19;11.00;;;4.50;;
49942;SDS011;36011;53.362;58.948;2023-06-10T15:42:25;8.15;;;4.60;;
49942;SDS011;36011;53.362;58.948;2023-06-10T15:45:26;6.63;;;3.60;;
49942;SDS011;36011;53.362;58.948;2023-06-10T15:48:30;9.00;;;4.53;;
49942;SDS011;36011;53.362;58.948;2023-06-10T15:51:34;25.30;;;6.70;;
49942;SDS011;36011;53.362;58.948;2023-06-10T15:54:36;14.23;;;4.57;;
49942;SDS011;36011;53.362;58.948;2023-06-10T15:57:42;10.75;;;3.85;;
49942;SDS011;36011;53.362;58.948;2023-06-10T16:00:50;6.85;;;3.40;;
49942;SDS011;36011;53.362;58.948;2023-06-10T16:03:58;8.68;;;3.72;;
49942;SDS011;36011;53.362;58.948;2023-06-10T16:07:02;7.18;;;3.10;;
49942;SDS011;36011;53.362;58.948;2023-06-10T16:10:04;4.68;;;3.08;;
49942;SDS011;36011;53.362;58.948;2023-06-10T16:13:08;7.70;;;3.10;;
49942;SDS011;36011;53.362;58.948;2023-06-10T16:16:12;8.02;;;3.33;;
49942;SDS011;36011;53.362;58.948;2023-06-10T16:19:13;4.95;;;3.00;;
49942;SDS011;36011;53.362;58.948;2023-06-10T16:22:22;4.53;;;3.05;;
49942;SDS011;36011;53.362;58.948;2023-06-10T16:25:26;4.40;;;2.83;;
49942;SDS011;36011;53.362;58.948;2023-06-10T16:28:32;4.70;;;3.17;;
49942;SDS011;36011;53.362;58.948;2023-06-10T16:31:37;6.43;;;3.40;;
49942;SDS011;36011;53.362;58.948;2023-06-10T16:34:41;5.38;;;3.17;;
49942;SDS011;36011;53.362;58.948;2023-06-10T16:37:46;5.90;;;2.88;;
49942;SDS011;36011;53.362;58.948;2023-06-10T16:40:49;4.57;;;3.25;;
49942;SDS011;36011;53.362;58.948;2023-06-10T16:43:56;4.55;;;3.08;;
49942;SDS011;36011;53.362;58.948;2023-06-10T16:47:02;4.57;;;3.65;;
49942;SDS011;36011;53.362;58.948;2023-06-10T16:50:04;5.85;;;3.33;;
49942;SDS011;36011;53.362;58.948;2023-06-10T16:53:05;8.27;;;3.65;;
49942;SDS011;36011;53.362;58.948;2023-06-10T16:56:10;5.03;;;3.17;;
49942;SDS011;36011;53.362;58.948;2023-06-10T16:59:12;4.95;;;3.20;;
49942;SDS011;36011;53.362;58.948;2023-06-10T17:02:16;8.38;;;5.05;;
49942;SDS011;36011;53.362;58.948;2023-06-10T17:05:17;9.02;;;3.92;;
49942;SDS011;36011;53.362;58.948;2023-06-10T17:08:21;7.35;;;4.35;;
49942;SDS011;36011;53.362;58.948;2023-06-10T17:11:25;7.20;;;4.03;;
49942;SDS011;36011;53.362;58.948;2023-06-10T17:14:32;6.68;;;4.53;;
49942;SDS011;36011;53.362;58.948;2023-06-10T17:17:36;7.47;;;5.60;;
49942;SDS011;36011;53.362;58.948;2023-06-10T17:20:40;7.93;;;5.53;;
49942;SDS011;36011;53.362;58.948;2023-06-10T17:23:47;12.15;;;7.72;;
49942;SDS011;36011;53.362;58.948;2023-06-10T17:26:52;10.05;;;5.80;;
49942;SDS011;36011;53.362;58.948;2023-06-10T17:29:56;7.18;;;4.50;;
49942;SDS011;36011;53.362;58.948;2023-06-10T17:33:00;7.45;;;4.35;;
49942;SDS011;36011;53.362;58.948;2023-06-10T17:36:04;6.35;;;4.60;;
49942;SDS011;36011;53.362;58.948;2023-06-10T17:39:08;9.55;;;6.40;;
49942;SDS011;36011;53.362;58.948;2023-06-10T17:42:09;13.10;;;6.80;;
49942;SDS011;36011;53.362;58.948;2023-06-10T17:45:13;9.00;;;5.55;;
49942;SDS011;36011;53.362;58.948;2023-06-10T17:48:17;5.25;;;3.75;;
49942;SDS011;36011;53.362;58.948;2023-06-10T17:51:21;5.85;;;3.72;;
49942;SDS011;36011;53.362;58.948;2023-06-10T17:54:25;6.93;;;3.65;;
49942;SDS011;36011;53.362;58.948;2023-06-10T18:00:33;7.03;;;3.78;;
49942;SDS011;36011;53.362;58.948;2023-06-10T18:06:37;3.22;;;2.90;;
49942;SDS011;36011;53.362;58.948;2023-06-10T18:09:38;5.63;;;3.60;;
49942;SDS011;36011;53.362;58.948;2023-06-10T18:12:40;9.75;;;7.07;;
49942;SDS011;36011;53.362;58.948;2023-06-10T18:15:41;7.05;;;4.82;;
49942;SDS011;36011;53.362;58.948;2023-06-10T18:18:45;7.65;;;4.63;;
49942;SDS011;36011;53.362;58.948;2023-06-10T18:21:49;5.25;;;3.40;;
49942;SDS011;36011;53.362;58.948;2023-06-10T18:24:50;5.10;;;3.83;;
49942;SDS011;36011;53.362;58.948;2023-06-10T18:27:54;4.35;;;2.50;;
49942;SDS011;36011;53.362;58.948;2023-06-10T18:30:59;3.80;;;2.90;;
49942;SDS011;36011;53.362;58.948;2023-06-10T18:34:01;4.15;;;3.25;;
49942;SDS011;36011;53.362;58.948;2023-06-10T18:37:07;3.25;;;2.92;;
49942;SDS011;36011;53.362;58.948;2023-06-10T18:40:11;5.20;;;3.20;;
49942;SDS011;36011;53.362;58.948;2023-06-10T18:43:16;11.68;;;8.05;;
49942;SDS011;36011;53.362;58.948;2023-06-10T18:46:18;7.47;;;4.37;;
49942;SDS011;36011;53.362;58.948;2023-06-10T18:49:19;7.82;;;4.00;;